Flight Briefing for CPX236

Departure Arrival
Washington Dulles International Airport (KIAD)
Click to view FAA NOTAMS
March Air Reserve Base (KRIV)
Click to view FAA NOTAMS
Departure Time Arrival Time
N/A N/A
Aircraft Distance
B767-300BDSF 1970nm
Departure METAR Arrival METAR
KIAD 180452Z 28016G22KT 9SM -RA BKN008 BKN050 OVC080 02/01 A2990 RMK AO2 PRESRR SLP127 P0005 T00170006 400391050 KRIV 180458Z AUTO 26007KT 10SM SCT024 SCT034 BKN048 BKN060 07/07 A2995 RMK AO2 SLP145 T00680065
Suggested Route
BUNZZ3 RAMAY Q72 HACKS J149 EMPTY J80 SAAGS J80 MCI J24 SLN J102 LAA J102 GUP J96 PKE J78 TRM ARKOE1


View recent IFR Routes data
Notes



Charts and Procedures

Charts for KIAD
No chart available
Charts for KRIV
No chart available

Ventusky Weather